< < Back
Terminal Aerodrome Forecast


Current Version              Previous Versions:   1  2  3  4  5  6  7  8  9  

Terminal Aerodrome Forecast

980
FTUS42 KGSP 302056 AAA
TAFCLT
TAF AMD
KCLT 302056Z 3021/3118 36004KT P6SM SKC
     FM310000 02003KT P6SM SKC
     FM310900 03003KT P6SM FEW045
     FM311500 05003KT P6SM FEW045 SCT250
     FM311700 30003KT P6SM SCT045 BKN250=

Latest METAR

286
SAUS70 KWBC 310800
MTRCLT
METAR KCLT 310752Z 36006KT 10SM CLR 06/02 A2996 RMK AO2 SLP143
T00560022


USA.gov is the U.S. government's official web portal to all federal, state and local government web resources and services.